Impacts METAR Board INFO
IDs:

KBWI - Baltimore-Washington, MD, US

Updated at: 1549 UTC 23 Jan 2018
Potential Impact None Slight Moderate High
Time23/03Z 23/04Z 23/05Z 23/06Z 23/07Z 23/08Z 23/09Z 23/10Z 23/11Z 23/12Z 23/13Z 23/14Z 23/15Z
VIS10 10 10 10 10 10 10 10 8 5 6 10 10
CIG250 180 170 170 28 14 12 10 14 5 5 9 27
CoverBKNBKNBKNOVCOVCOVCOVCOVCOVCOVCOVCOVCBKN
FltCatVFRVFRVFRVFRMVFRMVFRMVFRMVFRMVFRIFRIFRIFRMVFR
WX-------------RA---RA-RA BRBR----
WDir13015000130900130130140160140200
WSpd4 4 3 3 3 6 0 5 7 7 7 4 6
WGst-- -- -- -- -- -- -- -- -- -- -- -- --
Raw hourly METARs
KBWI 230254Z 13004KT 10SM SCT200 BKN250 10/06 A3000 RMK AO2 SLP159 T01000056 55008
KBWI 230354Z 15004KT 10SM FEW100 BKN180 BKN250 09/05 A2996 RMK AO2 SLP145 T00940050
KBWI 230454Z VRB03KT 10SM FEW100 BKN170 BKN220 08/05 A2994 RMK AO2 SLP137 T00830050 401670056
KBWI 230554Z VRB03KT 10SM SCT130 BKN170 OVC220 09/06 A2991 RMK AO2 SLP126 T00890056 10117 20083 56032
KBWI 230654Z 13003KT 10SM BKN028 BKN080 OVC130 09/06 A2988 RMK AO2 SLP116 T00890056
KBWI 230754Z 09006KT 10SM BKN014 BKN034 OVC120 09/06 A2982 RMK AO2 PRESFR SLP098 T00890061
KBWI 230854Z 00000KT 10SM -RA OVC012 09/07 A2980 RMK AO2 RAB50 SLP091 P0000 60000 T00890067 56035
KBWI 230954Z 13005KT 10SM OVC010 10/09 A2976 RMK AO2 RAE45 SLP077 P0002 T01000094
KBWI 231054Z 13007KT 8SM -RA BKN014 OVC032 11/11 A2971 RMK AO2 RAB0959E30B46 SLP061 P0000 T01110106
KBWI 231154Z 14007KT 5SM -RA BR BKN005 BKN024 OVC080 11/11 A2968 RMK AO2 SLP050 P0002 60004 70004 T01060106 10111 20083 56042
KBWI 231254Z 16007KT 6SM BR BKN005 BKN016 OVC080 12/12 A2965 RMK AO2 RAE32 SLP040 P0002 T01170117
KBWI 231354Z 14004KT 10SM BKN009 BKN014 OVC027 14/14 A2964 RMK AO2 SLP036 T01390139
KBWI 231454Z 20006KT 10SM SCT009 BKN027 BKN100 17/16 A2964 RMK AO2 SLP036 SCT009 V BKN 60002 T01670156 56013